createdAt,value
2023-04-27T00:03:06.149Z,7.30
2023-04-27T00:08:09.006Z,8.13
2023-04-27T00:13:11.260Z,7.95
2023-04-27T00:18:13.378Z,7.65
2023-04-27T00:23:15.475Z,7.28
2023-04-27T00:28:17.543Z,8.82
2023-04-27T00:33:19.757Z,7.35
2023-04-27T00:38:23.137Z,7.35
2023-04-27T00:43:25.261Z,7.43
2023-04-27T00:48:28.067Z,8.05
2023-04-27T00:53:31.798Z,8.05
2023-04-27T00:58:33.863Z,7.40
2023-04-27T01:03:36.213Z,6.95
2023-04-27T01:08:39.089Z,6.60
2023-04-27T01:13:41.408Z,6.38
2023-04-27T01:18:44.313Z,6.63
2023-04-27T01:23:46.447Z,6.38
2023-04-27T01:28:48.938Z,6.55
2023-04-27T01:33:50.939Z,6.68
2023-04-27T01:38:53.096Z,6.22
2023-04-27T01:43:55.144Z,6.05
2023-04-27T01:48:57.349Z,6.05
2023-04-27T01:53:59.668Z,6.82
2023-04-27T01:59:02.205Z,6.50
2023-04-27T02:04:05.222Z,5.80
2023-04-27T02:09:08.077Z,6.45
2023-04-27T02:14:10.212Z,6.15
2023-04-27T02:19:12.815Z,5.85
2023-04-27T02:24:15.320Z,6.80
2023-04-27T02:29:18.500Z,6.32
2023-04-27T02:34:21.035Z,6.43
2023-04-27T02:39:23.136Z,6.10
2023-04-27T02:44:25.504Z,6.57
2023-04-27T02:49:27.535Z,6.40
2023-04-27T02:54:29.899Z,6.25
2023-04-27T02:59:32.908Z,5.95
2023-04-27T03:04:36.628Z,5.97
2023-04-27T03:09:38.881Z,5.63
2023-04-27T03:14:41.098Z,6.03
2023-04-27T03:19:43.167Z,6.63
2023-04-27T03:24:45.475Z,6.65
2023-04-27T03:29:52.259Z,7.05
2023-04-27T03:34:56.315Z,6.65
2023-04-27T03:39:58.523Z,6.65
2023-04-27T03:45:00.650Z,6.65
2023-04-27T03:50:02.820Z,6.45
2023-04-27T03:55:07.016Z,6.63
2023-04-27T04:00:12.025Z,6.80
2023-04-27T04:05:18.933Z,6.70
2023-04-27T04:10:21.011Z,6.40
2023-04-27T04:15:24.564Z,6.82
2023-04-27T04:20:27.459Z,6.70
2023-04-27T04:25:30.054Z,6.93
2023-04-27T04:30:33.241Z,6.68
2023-04-27T04:35:39.081Z,6.95
2023-04-27T04:40:44.442Z,7.03
2023-04-27T04:45:48.074Z,7.45
2023-04-27T04:50:50.143Z,6.68
2023-04-27T04:55:52.206Z,7.13
2023-04-27T05:00:54.283Z,6.57
2023-04-27T05:05:56.245Z,7.70
2023-04-27T05:10:58.362Z,6.65
2023-04-27T05:16:03.918Z,6.45
2023-04-27T05:21:06.033Z,7.15
2023-04-27T05:26:12.792Z,7.30
2023-04-27T05:31:14.890Z,7.10
2023-04-27T05:36:16.982Z,7.05
2023-04-27T05:41:19.605Z,6.75
2023-04-27T05:46:21.807Z,6.90
2023-04-27T05:51:23.969Z,6.35
2023-04-27T05:56:26.090Z,6.00
2023-04-27T06:01:28.123Z,7.00
2023-04-27T06:06:33.381Z,6.20
2023-04-27T06:11:35.468Z,6.20
2023-04-27T06:16:37.671Z,6.15
2023-04-27T06:21:39.766Z,6.07
2023-04-27T06:26:41.736Z,6.30
2023-04-27T06:31:43.855Z,5.88
2023-04-27T06:36:46.273Z,6.30
2023-04-27T06:41:48.245Z,5.80
2023-04-27T06:46:56.677Z,6.25
2023-04-27T06:51:58.682Z,6.60
2023-04-27T06:57:00.749Z,5.70
2023-04-27T07:02:03.239Z,7.13
2023-04-27T07:07:05.622Z,6.53
2023-04-27T07:12:07.871Z,6.53
2023-04-27T07:17:09.925Z,6.63
2023-04-27T07:22:12.063Z,7.10
2023-04-27T07:27:14.962Z,6.53
2023-04-27T07:32:17.142Z,7.22
2023-04-27T07:37:19.756Z,7.47
2023-04-27T07:42:25.058Z,6.88
2023-04-27T07:47:27.184Z,7.32
2023-04-27T07:52:29.549Z,5.25
2023-04-27T07:57:31.792Z,8.05
2023-04-27T08:02:34.875Z,7.90
2023-04-27T08:07:41.195Z,7.57
2023-04-27T08:12:46.343Z,7.28
2023-04-27T08:17:48.605Z,7.47
2023-04-27T08:22:50.963Z,7.57
2023-04-27T08:27:53.066Z,7.30
2023-04-27T08:32:55.145Z,5.70
2023-04-27T08:37:57.232Z,5.68
2023-04-27T08:43:00.329Z,5.22
2023-04-27T08:48:02.501Z,5.10
2023-04-27T08:53:04.695Z,4.60
2023-04-27T08:58:06.771Z,4.93
2023-04-27T09:03:25.597Z,5.65
2023-04-27T09:08:27.715Z,5.50
2023-04-27T09:13:37.848Z,5.70
2023-04-27T09:18:42.730Z,4.57
2023-04-27T09:23:46.388Z,5.65
2023-04-27T09:28:50.926Z,5.65
2023-04-27T09:33:56.512Z,5.18
2023-04-27T09:39:04.344Z,4.95
2023-04-27T09:44:07.596Z,4.13
2023-04-27T09:49:09.978Z,4.50
2023-04-27T09:54:14.439Z,4.32
2023-04-27T09:59:25.488Z,4.63
2023-04-27T10:04:53.361Z,5.25
2023-04-27T10:10:01.936Z,4.63
2023-04-27T10:15:15.227Z,3.92
2023-04-27T10:20:17.821Z,4.30
2023-04-27T10:25:26.152Z,4.43
2023-04-27T10:30:33.962Z,4.40
2023-04-27T10:35:37.110Z,4.32
2023-04-27T10:40:39.354Z,4.50
2023-04-27T10:45:43.305Z,4.53
2023-04-27T10:50:46.694Z,4.32
2023-04-27T10:55:55.444Z,3.80
2023-04-27T11:00:57.547Z,3.90
2023-04-27T11:06:02.200Z,3.85
2023-04-27T11:11:05.981Z,4.22
2023-04-27T11:16:08.289Z,3.72
2023-04-27T11:21:15.044Z,4.07
2023-04-27T11:26:19.364Z,4.22
2023-04-27T11:31:21.862Z,3.70
2023-04-27T11:36:24.403Z,4.18
2023-04-27T11:41:34.439Z,4.70
2023-04-27T11:46:38.148Z,4.60
2023-04-27T11:51:40.539Z,5.85
2023-04-27T11:56:43.039Z,4.10
2023-04-27T12:01:45.331Z,4.53
2023-04-27T12:06:47.557Z,4.35
2023-04-27T12:11:49.551Z,4.15
2023-04-27T12:16:51.890Z,4.38
2023-04-27T12:21:55.373Z,4.05
2023-04-27T12:26:58.008Z,4.40
2023-04-27T12:32:00.219Z,4.22
2023-04-27T12:37:02.270Z,4.70
2023-04-27T12:42:04.513Z,4.47
2023-04-27T12:47:06.758Z,4.65
2023-04-27T12:52:09.594Z,4.80
2023-04-27T12:57:12.085Z,4.50
2023-04-27T13:02:14.169Z,4.88
2023-04-27T13:07:16.286Z,5.20
2023-04-27T13:12:18.448Z,4.88
2023-04-27T13:17:20.968Z,5.32
2023-04-27T13:22:22.942Z,5.18
2023-04-27T13:27:28.280Z,5.20
2023-04-27T13:32:30.469Z,4.72
2023-04-27T13:37:32.508Z,4.78
2023-04-27T13:42:34.885Z,4.60
2023-04-27T13:47:37.156Z,4.95
2023-04-27T13:52:39.753Z,4.60
2023-04-27T13:57:41.849Z,6.03
2023-04-27T14:02:43.927Z,8.55
2023-04-27T14:07:46.139Z,5.22
2023-04-27T14:12:48.685Z,5.72
2023-04-27T14:17:50.813Z,7.78
2023-04-27T14:22:52.847Z,4.45
2023-04-27T14:27:55.104Z,4.55
2023-04-27T14:32:57.256Z,5.28
2023-04-27T14:38:02.331Z,5.35
2023-04-27T14:43:04.755Z,6.47
2023-04-27T14:48:06.847Z,4.53
2023-04-27T14:53:08.981Z,4.88
2023-04-27T14:58:11.733Z,5.18
2023-04-27T15:03:13.991Z,4.90
2023-04-27T15:08:16.130Z,4.70
2023-04-27T15:13:18.432Z,6.70
2023-04-27T15:18:20.722Z,5.38
2023-04-27T15:23:24.291Z,5.90
2023-04-27T15:28:26.683Z,5.50
2023-04-27T15:33:28.705Z,5.20
2023-04-27T15:38:30.745Z,5.63
2023-04-27T15:43:32.800Z,4.85
2023-04-27T15:48:35.092Z,5.25
2023-04-27T15:53:37.388Z,5.38
2023-04-27T15:58:39.487Z,5.32
2023-04-27T16:03:41.987Z,5.80
2023-04-27T16:08:44.238Z,5.70
2023-04-27T16:13:46.584Z,5.57
2023-04-27T16:18:48.949Z,5.13
2023-04-27T16:23:51.710Z,5.80
2023-04-27T16:28:54.422Z,5.47
2023-04-27T16:33:56.558Z,5.80
2023-04-27T16:38:59.157Z,5.55
2023-04-27T16:44:01.215Z,6.03
2023-04-27T16:49:03.901Z,5.82
2023-04-27T16:54:05.976Z,6.22
2023-04-27T16:59:10.495Z,6.20
2023-04-27T17:04:12.834Z,6.18
2023-04-27T17:09:15.313Z,6.68
2023-04-27T17:14:17.584Z,6.10
2023-04-27T17:19:19.627Z,6.00
2023-04-27T17:24:24.458Z,6.45
2023-04-27T17:29:26.455Z,5.88
2023-04-27T17:34:28.562Z,6.50
2023-04-27T17:39:30.680Z,6.35
2023-04-27T17:44:32.848Z,6.38
2023-04-27T17:49:35.273Z,6.43
2023-04-27T17:54:37.331Z,6.55
2023-04-27T17:59:39.403Z,6.13
2023-04-27T18:04:41.588Z,6.28
2023-04-27T18:09:45.442Z,7.20
2023-04-27T18:14:47.569Z,5.75
2023-04-27T18:19:58.072Z,6.35
2023-04-27T18:25:10.022Z,6.88
2023-04-27T18:30:13.795Z,6.13
2023-04-27T18:35:15.912Z,6.63
2023-04-27T18:40:20.924Z,7.43
2023-04-27T18:45:22.967Z,7.40
2023-04-27T18:50:25.023Z,6.97
2023-04-27T18:55:27.094Z,7.20
2023-04-27T19:00:30.755Z,7.05
2023-04-27T19:05:32.844Z,7.22
2023-04-27T19:10:34.951Z,7.38
2023-04-27T19:15:37.049Z,6.90
2023-04-27T19:20:40.211Z,7.30
2023-04-27T19:25:42.365Z,7.85
2023-04-27T19:30:48.135Z,7.55
2023-04-27T19:35:50.292Z,7.60
2023-04-27T19:40:52.367Z,7.65
2023-04-27T19:45:54.505Z,7.55
2023-04-27T19:50:56.668Z,8.00
2023-04-27T19:56:00.678Z,7.28
2023-04-27T20:01:03.925Z,7.45
2023-04-27T20:06:06.169Z,7.47
2023-04-27T20:11:08.376Z,7.72
2023-04-27T20:16:10.509Z,6.97
2023-04-27T20:21:12.613Z,7.60
2023-04-27T20:26:14.692Z,8.32
2023-04-27T20:31:16.864Z,7.40
2023-04-27T20:36:19.074Z,7.18
2023-04-27T20:41:21.853Z,7.72
2023-04-27T20:46:23.874Z,7.88
2023-04-27T20:51:26.307Z,8.00
2023-04-27T20:56:30.652Z,7.22
2023-04-27T21:01:32.827Z,7.75
2023-04-27T21:06:34.873Z,8.35
2023-04-27T21:11:37.071Z,7.32
2023-04-27T21:16:39.299Z,7.60
2023-04-27T21:21:42.980Z,7.82
2023-04-27T21:26:45.085Z,7.13
2023-04-27T21:31:47.160Z,7.90
2023-04-27T21:36:49.172Z,7.00
2023-04-27T21:41:51.417Z,7.20
2023-04-27T21:46:53.512Z,6.45
2023-04-27T21:51:55.564Z,7.55
2023-04-27T21:56:57.523Z,7.40
2023-04-27T22:01:59.865Z,6.68
2023-04-27T22:07:02.406Z,6.65
2023-04-27T22:12:04.787Z,7.47
2023-04-27T22:17:07.466Z,6.10
2023-04-27T22:22:10.353Z,7.05
2023-04-27T22:27:12.654Z,7.25
2023-04-27T22:32:15.788Z,7.07
2023-04-27T22:37:19.533Z,5.97
2023-04-27T22:42:21.552Z,6.60
2023-04-27T22:47:25.414Z,6.75
2023-04-27T22:52:27.926Z,6.75
2023-04-27T22:57:30.293Z,7.70
2023-04-27T23:02:32.596Z,7.95
2023-04-27T23:07:35.072Z,8.13
2023-04-27T23:12:38.633Z,8.25
2023-04-27T23:17:41.256Z,7.68
2023-04-27T23:22:43.819Z,7.95
2023-04-27T23:27:45.937Z,7.32
2023-04-27T23:32:47.970Z,7.85
2023-04-27T23:37:49.999Z,8.68
2023-04-27T23:42:52.492Z,8.60
2023-04-27T23:47:54.569Z,8.05
2023-04-27T23:52:56.597Z,8.10
2023-04-27T23:57:58.572Z,7.72
